Terminal Aerodrome Forecast
Issued by NWS

Current Version | Previous Version | Graphics & Text | Print | Product List | Glossary On
Versions: 1 2 3 4 5 6 7 8 9 10 11 12 13 14 15 16 17 18 19 20 21 22 23
417
FTUS41 KRLX 180535
TAFCKB
TAF
KCKB 180535Z 1806/1906 26008KT P6SM OVC005
     FM180900 27008KT 6SM -DZ BR OVC008
     FM181100 27008KT 6SM BR OVC010
     FM181500 29005KT 6SM BR BKN020
     FM181700 21004KT P6SM SCT040
     FM182000 20003KT P6SM FEW200=

USA.gov is the U.S. government's official web portal to all federal, state and local government web resources and services.